Alithini — 9HA4311 — position and weather

sailwx.info

Track history (hours):
 
Tides and Currents Weather Stations Pressure Air Temp Water Temp Dewpoint Dewpoint Depression Visibility Wind Speed Wind Dir Waves Ship Positions

Alithini

Last reported at 2018-Feb-15 05:14 UTC. Time now 2018-Feb-23 08:41 UTC.
Position N 38°45' W 010°07'.
Warning: this ship's position is 8 days out of date.

Length 190 m; draft 9.8 m.

Type: Cargo ship. MMSI: 249608000.

Date/timePositionNaut miles runAvg speedWind from/ knotsBaromVisibWave heightAir tempDewpointWater temp
2018-Feb-15 05:14N 38°45' W 010°07'513.9
2018-Feb-15 04:53N 38°50' W 010°06'613.4
2018-Feb-15 04:25N 38°56' W 010°06'613.3
2018-Feb-15 04:00N 39°02' W 010°05'713.1
2018-Feb-15 03:30N 39°08' W 010°05'  
2018-Feb-12 03:21N 50°26' W 000°22'513.1
2018-Feb-12 03:01N 50°28' W 000°15'713.4
2018-Feb-12 02:30N 50°30' W 000°05'713.5
2018-Feb-12 01:59N 50°32' E 000°06'813.8
2018-Feb-12 01:23N 50°34' E 000°18'514.0
2018-Feb-12 01:00N 50°35' E 000°26'713.8
2018-Feb-12 00:31N 50°37' E 000°36'913.9
2018-Feb-11 23:53N 50°43' E 000°47'513.7
2018-Feb-11 23:30N 50°46' E 000°53'1713.2
2018-Feb-11 22:14N 50°57' E 001°14'312.5
2018-Feb-11 21:57N 50°59' E 001°18'712.0
2018-Feb-11 21:21N 51°04' E 001°27'412.6
2018-Feb-11 21:00N 51°07' E 001°32'612.3
2018-Feb-11 20:30N 51°11' E 001°40'612.7
2018-Feb-11 20:00N 51°15' E 001°46'713.7
2018-Feb-11 19:30N 51°21' E 001°52'714.0
2018-Feb-11 19:00N 51°27' E 001°58'714.3
2018-Feb-11 18:30N 51°32' E 002°05'47911.3
2018-Feb-10 00:09N 57°50' E 010°35'212.7
2018-Feb-10 00:00N 57°50' E 010°39'712.6
2018-Feb-09 23:27N 57°47' E 010°50'613.3
2018-Feb-09 23:00N 57°43' E 010°59'313.9
2018-Feb-09 22:46N 57°41' E 011°03'414.1
2018-Feb-09 22:31N 57°38' E 011°08'714.7
2018-Feb-09 22:01N 57°33' E 011°18'1514.6
2018-Feb-09 21:00N 57°20' E 011°30'15212.7
2018-Feb-09 09:00N 54°50' E 010°52'611.7
2018-Feb-09 08:30N 54°44' E 010°52'612.6
2018-Feb-09 08:00N 54°39' E 011°00'714.4
2018-Feb-09 07:30N 54°36' E 011°11'714.6
2018-Feb-09 07:00N 54°33' E 011°23'1413.8
2018-Feb-09 06:00N 54°28' E 011°45'14012.2
2018-Feb-08 18:30N 55°38' E 015°16'1313.5
2018-Feb-08 17:30N 55°41' E 015°39'2713.6
2018-Feb-08 15:30N 55°48' E 016°26'45712.2
2018-Feb-07 02:02N 60°09' E 028°13'113.4
2018-Feb-07 01:59N 60°08' E 028°15'713.5
2018-Feb-07 01:27N 60°04' E 028°26'612.8
2018-Feb-07 01:00N 60°03' E 028°37'35 9.6
2018-Feb-06 21:23N 59°58' E 029°46'5 8.2
2018-Feb-06 20:44N 59°56' E 029°56'2 8.6
2018-Feb-06 20:27N 59°55' E 030°01'4 8.2
2018-Feb-06 20:00N 59°54' E 030°07'3 5.0
2018-Feb-06 19:29N 59°53' E 030°13'1 1.4
2018-Feb-06 18:58N 59°54' E 030°14'0 0.1
2018-Feb-06 18:28N 59°54' E 030°14'0 0.0
2018-Feb-06 17:12N 59°54' E 030°14'0 0.0
2018-Feb-06 16:50N 59°54' E 030°14'0 0.0
2018-Feb-06 16:27N 59°54' E 030°14'0 0.0
2018-Feb-06 15:57N 59°54' E 030°14'0 0.0
2018-Feb-06 15:25N 59°54' E 030°14'0 0.0
2018-Feb-06 14:57N 59°54' E 030°14'0 0.0
2018-Feb-06 14:26N 59°54' E 030°14'0 0.0
2018-Feb-06 13:59N 59°54' E 030°14'0 0.0
2018-Feb-06 13:21N 59°54' E 030°14'0 0.0
2018-Feb-06 12:25N 59°54' E 030°14'0 0.0
2018-Feb-06 11:55N 59°54' E 030°14'0 0.0
2018-Feb-06 11:25N 59°54' E 030°14'0 0.0
2018-Feb-06 10:50N 59°54' E 030°14'0 0.0
2018-Feb-06 10:30N 59°54' E 030°14'0 0.0
2018-Feb-06 09:55N 59°54' E 030°14'0 0.0
2018-Feb-06 09:23N 59°54' E 030°14'0 0.0
2018-Feb-06 08:58N 59°54' E 030°14'0 0.0
2018-Feb-06 08:30N 59°54' E 030°14'0 0.0
2018-Feb-06 07:52N 59°54' E 030°14'0 0.0
2018-Feb-06 07:19N 59°54' E 030°14'0 0.0
2018-Feb-06 07:00N 59°54' E 030°14'0 0.0
2018-Feb-06 06:29N 59°54' E 030°14'0 0.0
2018-Feb-06 06:00N 59°54' E 030°14'0 0.0
2018-Feb-06 05:28N 59°54' E 030°14'0 0.0
2018-Feb-06 04:49N 59°54' E 030°14'0 0.0
2018-Feb-06 04:25N 59°54' E 030°14'0 0.0
2018-Feb-06 03:56N 59°54' E 030°14'0 0.0
2018-Feb-06 03:26N 59°54' E 030°14'0 0.0
2018-Feb-06 03:00N 59°54' E 030°14'0 0.0
2018-Feb-06 02:25N 59°54' E 030°14'0 0.0
2018-Feb-06 01:50N 59°54' E 030°14'0 0.0
2018-Feb-06 01:30N 59°54' E 030°14'0 0.0
2018-Feb-06 00:58N 59°54' E 030°14'0 0.0
2018-Feb-06 00:29N 59°54' E 030°14'0 0.0
2018-Feb-05 23:58N 59°54' E 030°14'0 0.0
2018-Feb-05 23:30N 59°54' E 030°14'0 0.0
2018-Feb-05 22:58N 59°54' E 030°14'0 0.0
2018-Feb-05 22:30N 59°54' E 030°14'0 0.0
2018-Feb-05 22:00N 59°54' E 030°14'0 0.0
2018-Feb-05 21:28N 59°54' E 030°14'0 0.0
2018-Feb-05 21:00N 59°54' E 030°14'0 0.0
2018-Feb-05 20:24N 59°54' E 030°14'0 0.0
2018-Feb-05 20:00N 59°54' E 030°14'0 0.0
2018-Feb-05 19:29N 59°54' E 030°14'0 0.0
2018-Feb-05 19:00N 59°54' E 030°14'0 0.0
2018-Feb-05 18:23N 59°54' E 030°14'0 0.0
2018-Feb-05 17:50N 59°54' E 030°14'0 0.0
2018-Feb-05 17:15N 59°54' E 030°14'0 0.0
2018-Feb-05 16:57N 59°54' E 030°14'0 0.0
2018-Feb-05 16:28N 59°54' E 030°14'0 0.0
2018-Feb-05 16:00N 59°54' E 030°14'0 0.0
2018-Feb-05 15:29N 59°54' E 030°14'0 0.0
2018-Feb-05 14:59N 59°54' E 030°14'0 0.0
2018-Feb-05 14:28N 59°54' E 030°14'0 0.0
2018-Feb-05 13:59N 59°54' E 030°14'0 0.0
2018-Feb-05 13:29N 59°54' E 030°14'0 0.0
2018-Feb-05 11:39N 59°54' E 030°14'0 0.0
2018-Feb-05 11:21N 59°54' E 030°14'  
Track history (hours):
 
Tides and Currents Weather Stations Pressure Air Temp Water Temp Dewpoint Dewpoint Depression Visibility Wind Speed Wind Dir Waves Ship Positions

Alithini

Last reported at 2018-Feb-15 05:14 UTC. Time now 2018-Feb-23 08:41 UTC.
Position N 38°45' W 010°07'.
Warning: this ship's position is 8 days out of date.

Length 190 m; draft 9.8 m.

Type: Cargo ship. MMSI: 249608000.

Date/timePositionNaut miles runAvg speedWind from/ knotsBaromVisibWave heightAir tempDewpointWater temp
2018-Feb-15 05:14N 38°45' W 010°07'513.9
2018-Feb-15 04:53N 38°50' W 010°06'613.4
2018-Feb-15 04:25N 38°56' W 010°06'613.3
2018-Feb-15 04:00N 39°02' W 010°05'713.1
2018-Feb-15 03:30N 39°08' W 010°05'  
2018-Feb-12 03:21N 50°26' W 000°22'513.1
2018-Feb-12 03:01N 50°28' W 000°15'713.4
2018-Feb-12 02:30N 50°30' W 000°05'713.5
2018-Feb-12 01:59N 50°32' E 000°06'813.8
2018-Feb-12 01:23N 50°34' E 000°18'514.0
2018-Feb-12 01:00N 50°35' E 000°26'713.8
2018-Feb-12 00:31N 50°37' E 000°36'913.9
2018-Feb-11 23:53N 50°43' E 000°47'513.7
2018-Feb-11 23:30N 50°46' E 000°53'1713.2
2018-Feb-11 22:14N 50°57' E 001°14'312.5
2018-Feb-11 21:57N 50°59' E 001°18'712.0
2018-Feb-11 21:21N 51°04' E 001°27'412.6
2018-Feb-11 21:00N 51°07' E 001°32'612.3
2018-Feb-11 20:30N 51°11' E 001°40'612.7
2018-Feb-11 20:00N 51°15' E 001°46'713.7
2018-Feb-11 19:30N 51°21' E 001°52'714.0
2018-Feb-11 19:00N 51°27' E 001°58'714.3
2018-Feb-11 18:30N 51°32' E 002°05'47911.3
2018-Feb-10 00:09N 57°50' E 010°35'212.7
2018-Feb-10 00:00N 57°50' E 010°39'712.6
2018-Feb-09 23:27N 57°47' E 010°50'613.3
2018-Feb-09 23:00N 57°43' E 010°59'313.9
2018-Feb-09 22:46N 57°41' E 011°03'414.1
2018-Feb-09 22:31N 57°38' E 011°08'714.7
2018-Feb-09 22:01N 57°33' E 011°18'1514.6
2018-Feb-09 21:00N 57°20' E 011°30'15212.7
2018-Feb-09 09:00N 54°50' E 010°52'611.7
2018-Feb-09 08:30N 54°44' E 010°52'612.6
2018-Feb-09 08:00N 54°39' E 011°00'714.4
2018-Feb-09 07:30N 54°36' E 011°11'714.6
2018-Feb-09 07:00N 54°33' E 011°23'1413.8
2018-Feb-09 06:00N 54°28' E 011°45'14012.2
2018-Feb-08 18:30N 55°38' E 015°16'1313.5
2018-Feb-08 17:30N 55°41' E 015°39'2713.6
2018-Feb-08 15:30N 55°48' E 016°26'45712.2
2018-Feb-07 02:02N 60°09' E 028°13'113.4
2018-Feb-07 01:59N 60°08' E 028°15'713.5
2018-Feb-07 01:27N 60°04' E 028°26'612.8
2018-Feb-07 01:00N 60°03' E 028°37'35 9.6
2018-Feb-06 21:23N 59°58' E 029°46'5 8.2
2018-Feb-06 20:44N 59°56' E 029°56'2 8.6
2018-Feb-06 20:27N 59°55' E 030°01'4 8.2
2018-Feb-06 20:00N 59°54' E 030°07'3 5.0
2018-Feb-06 19:29N 59°53' E 030°13'1 1.4
2018-Feb-06 18:58N 59°54' E 030°14'0 0.1
2018-Feb-06 18:28N 59°54' E 030°14'0 0.0
2018-Feb-06 17:12N 59°54' E 030°14'0 0.0
2018-Feb-06 16:50N 59°54' E 030°14'0 0.0
2018-Feb-06 16:27N 59°54' E 030°14'0 0.0
2018-Feb-06 15:57N 59°54' E 030°14'0 0.0
2018-Feb-06 15:25N 59°54' E 030°14'0 0.0
2018-Feb-06 14:57N 59°54' E 030°14'0 0.0
2018-Feb-06 14:26N 59°54' E 030°14'0 0.0
2018-Feb-06 13:59N 59°54' E 030°14'0 0.0
2018-Feb-06 13:21N 59°54' E 030°14'0 0.0
2018-Feb-06 12:25N 59°54' E 030°14'0 0.0
2018-Feb-06 11:55N 59°54' E 030°14'0 0.0
2018-Feb-06 11:25N 59°54' E 030°14'0 0.0
2018-Feb-06 10:50N 59°54' E 030°14'0 0.0
2018-Feb-06 10:30N 59°54' E 030°14'0 0.0
2018-Feb-06 09:55N 59°54' E 030°14'0 0.0
2018-Feb-06 09:23N 59°54' E 030°14'0 0.0
2018-Feb-06 08:58N 59°54' E 030°14'0 0.0
2018-Feb-06 08:30N 59°54' E 030°14'0 0.0
2018-Feb-06 07:52N 59°54' E 030°14'0 0.0
2018-Feb-06 07:19N 59°54' E 030°14'0 0.0
2018-Feb-06 07:00N 59°54' E 030°14'0 0.0
2018-Feb-06 06:29N 59°54' E 030°14'0 0.0
2018-Feb-06 06:00N 59°54' E 030°14'0 0.0
2018-Feb-06 05:28N 59°54' E 030°14'0 0.0
2018-Feb-06 04:49N 59°54' E 030°14'0 0.0
2018-Feb-06 04:25N 59°54' E 030°14'0 0.0
2018-Feb-06 03:56N 59°54' E 030°14'0 0.0
2018-Feb-06 03:26N 59°54' E 030°14'0 0.0
2018-Feb-06 03:00N 59°54' E 030°14'0 0.0
2018-Feb-06 02:25N 59°54' E 030°14'0 0.0
2018-Feb-06 01:50N 59°54' E 030°14'0 0.0
2018-Feb-06 01:30N 59°54' E 030°14'0 0.0
2018-Feb-06 00:58N 59°54' E 030°14'0 0.0
2018-Feb-06 00:29N 59°54' E 030°14'0 0.0
2018-Feb-05 23:58N 59°54' E 030°14'0 0.0
2018-Feb-05 23:30N 59°54' E 030°14'0 0.0
2018-Feb-05 22:58N 59°54' E 030°14'0 0.0
2018-Feb-05 22:30N 59°54' E 030°14'0 0.0
2018-Feb-05 22:00N 59°54' E 030°14'0 0.0
2018-Feb-05 21:28N 59°54' E 030°14'0 0.0
2018-Feb-05 21:00N 59°54' E 030°14'0 0.0
2018-Feb-05 20:24N 59°54' E 030°14'0 0.0
2018-Feb-05 20:00N 59°54' E 030°14'0 0.0
2018-Feb-05 19:29N 59°54' E 030°14'0 0.0
2018-Feb-05 19:00N 59°54' E 030°14'0 0.0
2018-Feb-05 18:23N 59°54' E 030°14'0 0.0
2018-Feb-05 17:50N 59°54' E 030°14'0 0.0
2018-Feb-05 17:15N 59°54' E 030°14'0 0.0
2018-Feb-05 16:57N 59°54' E 030°14'0 0.0
2018-Feb-05 16:28N 59°54' E 030°14'0 0.0
2018-Feb-05 16:00N 59°54' E 030°14'0 0.0
2018-Feb-05 15:29N 59°54' E 030°14'0 0.0
2018-Feb-05 14:59N 59°54' E 030°14'0 0.0
2018-Feb-05 14:28N 59°54' E 030°14'0 0.0
2018-Feb-05 13:59N 59°54' E 030°14'0 0.0
2018-Feb-05 13:29N 59°54' E 030°14'0 0.0
2018-Feb-05 11:39N 59°54' E 030°14'0 0.0
2018-Feb-05 11:21N 59°54' E 030°14'  

Dump ship's entire track history